createdAt,value
2019-02-09T00:02:27.794Z,51.77
2019-02-09T00:04:58.972Z,61.90
2019-02-09T00:07:30.418Z,53.63
2019-02-09T00:10:01.779Z,44.73
2019-02-09T00:12:34.137Z,40.53
2019-02-09T00:15:06.057Z,50.30
2019-02-09T00:17:36.874Z,49.20
2019-02-09T00:20:08.260Z,55.67
2019-02-09T00:22:39.622Z,53.75
2019-02-09T00:25:11.256Z,52.13
2019-02-09T00:27:42.333Z,75.63
2019-02-09T00:30:13.786Z,60.77
2019-02-09T00:32:44.898Z,57.70
2019-02-09T00:35:23.835Z,55.50
2019-02-09T00:37:55.453Z,56.17
2019-02-09T00:40:26.757Z,47.30
2019-02-09T00:42:58.010Z,52.90
2019-02-09T00:45:29.345Z,65.47
2019-02-09T00:48:00.687Z,51.30
2019-02-09T00:50:31.739Z,45.40
2019-02-09T00:53:03.162Z,51.77
2019-02-09T00:55:34.023Z,50.03
2019-02-09T00:58:05.259Z,49.50
2019-02-09T01:00:36.093Z,52.00
2019-02-09T01:03:07.186Z,46.87
2019-02-09T01:05:40.915Z,48.40
2019-02-09T01:08:12.160Z,47.20
2019-02-09T01:10:43.370Z,45.20
2019-02-09T01:13:14.864Z,43.27
2019-02-09T01:15:45.816Z,45.63
2019-02-09T01:18:18.373Z,47.40
2019-02-09T01:20:49.557Z,51.77
2019-02-09T01:23:20.774Z,46.03
2019-02-09T01:25:52.204Z,46.50
2019-02-09T01:28:23.518Z,42.87
2019-02-09T01:30:54.764Z,51.83
2019-02-09T01:33:26.018Z,43.77
2019-02-09T01:35:57.127Z,47.77
2019-02-09T01:38:28.648Z,47.30
2019-02-09T01:40:59.810Z,46.57
2019-02-09T01:43:30.986Z,43.07
2019-02-09T01:46:02.119Z,44.70
2019-02-09T01:48:33.913Z,41.00
2019-02-09T01:51:04.883Z,44.10
2019-02-09T01:53:36.136Z,41.57
2019-02-09T01:56:07.321Z,43.40
2019-02-09T01:58:39.110Z,48.53
2019-02-09T02:01:10.401Z,39.40
2019-02-09T02:03:41.128Z,25.50
2019-02-09T02:06:12.276Z,29.07
2019-02-09T02:08:43.786Z,29.73
2019-02-09T02:11:14.885Z,37.27
2019-02-09T02:13:46.034Z,31.40
2019-02-09T02:16:17.120Z,28.43
2019-02-09T02:18:51.074Z,27.40
2019-02-09T02:21:27.801Z,31.80
2019-02-09T02:24:02.660Z,30.10
2019-02-09T02:26:34.263Z,30.37
2019-02-09T02:29:05.435Z,30.97
2019-02-09T02:31:36.507Z,26.10
2019-02-09T02:34:07.663Z,26.73
2019-02-09T02:36:38.792Z,27.70
2019-02-09T02:39:11.736Z,23.97
2019-02-09T02:41:42.708Z,31.60
2019-02-09T02:44:13.890Z,24.80
2019-02-09T02:46:44.967Z,24.50
2019-02-09T02:49:16.379Z,23.23
2019-02-09T02:51:47.620Z,29.43
2019-02-09T02:54:18.777Z,26.50
2019-02-09T02:56:49.931Z,27.23
2019-02-09T02:59:20.958Z,27.37
2019-02-09T03:01:51.897Z,22.33
2019-02-09T03:04:23.244Z,24.37
2019-02-09T03:06:54.359Z,24.63
2019-02-09T03:09:25.447Z,27.53
2019-02-09T03:11:56.468Z,27.00
2019-02-09T03:14:27.684Z,30.60
2019-02-09T03:16:59.312Z,27.83
2019-02-09T03:19:30.613Z,28.13
2019-02-09T03:22:01.504Z,23.23
2019-02-09T03:24:35.790Z,26.97
2019-02-09T03:27:07.078Z,26.57
2019-02-09T03:29:37.878Z,23.83
2019-02-09T03:32:11.017Z,31.53
2019-02-09T03:34:41.191Z,28.73
2019-02-09T03:37:12.358Z,30.03
2019-02-09T03:39:43.945Z,23.63
2019-02-09T03:42:15.119Z,24.43
2019-02-09T03:44:46.241Z,26.05
2019-02-09T03:47:19.095Z,34.10
2019-02-09T03:49:50.193Z,33.00
2019-02-09T03:52:21.140Z,33.87
2019-02-09T03:54:52.565Z,31.00
2019-02-09T03:57:24.132Z,34.03
2019-02-09T04:00:15.514Z,26.00
2019-02-09T04:02:46.508Z,32.67
2019-02-09T04:05:18.120Z,33.33
2019-02-09T04:07:49.203Z,26.80
2019-02-09T04:10:21.634Z,26.97
2019-02-09T04:12:52.789Z,24.97
2019-02-09T04:15:24.706Z,21.07
2019-02-09T04:17:57.038Z,21.57
2019-02-09T04:20:28.399Z,19.80
2019-02-09T04:22:59.243Z,25.13
2019-02-09T04:25:30.295Z,26.23
2019-02-09T04:28:01.258Z,22.40
2019-02-09T04:30:32.927Z,26.97
2019-02-09T04:33:04.138Z,28.67
2019-02-09T04:35:35.172Z,29.73
2019-02-09T04:38:06.291Z,31.73
2019-02-09T04:40:37.087Z,32.60
2019-02-09T04:43:08.106Z,37.73
2019-02-09T04:45:38.863Z,34.00
2019-02-09T04:48:09.840Z,35.40
2019-02-09T04:50:47.731Z,38.67
2019-02-09T04:53:19.098Z,37.80
2019-02-09T04:55:50.267Z,35.43
2019-02-09T04:58:21.321Z,36.60
2019-02-09T05:00:52.525Z,41.13
2019-02-09T05:03:23.776Z,37.90
2019-02-09T05:05:54.974Z,40.97
2019-02-09T05:08:25.981Z,42.43
2019-02-09T05:10:56.962Z,36.23
2019-02-09T05:13:27.868Z,47.77
2019-02-09T05:15:58.936Z,38.17
2019-02-09T05:18:29.940Z,43.10
2019-02-09T05:21:07.301Z,48.93
2019-02-09T05:23:38.342Z,37.10
2019-02-09T05:26:13.479Z,39.33
2019-02-09T05:29:27.410Z,40.77
2019-02-09T05:31:58.505Z,41.10
2019-02-09T05:34:29.416Z,38.30
2019-02-09T05:37:00.654Z,39.40
2019-02-09T05:39:31.598Z,43.17
2019-02-09T05:42:02.765Z,39.60
2019-02-09T05:44:34.938Z,49.80
2019-02-09T05:47:06.117Z,45.63
2019-02-09T05:49:37.185Z,42.50
2019-02-09T05:52:08.287Z,37.83
2019-02-09T05:54:39.323Z,42.93
2019-02-09T05:57:10.341Z,40.37
2019-02-09T05:59:40.976Z,40.97
2019-02-09T06:02:12.147Z,40.50
2019-02-09T06:04:43.134Z,47.20
2019-02-09T06:07:15.450Z,40.87
2019-02-09T06:09:46.543Z,43.20
2019-02-09T06:12:17.712Z,44.93
2019-02-09T06:14:56.109Z,41.60
2019-02-09T06:17:27.395Z,46.33
2019-02-09T06:19:58.759Z,46.80
2019-02-09T06:22:29.931Z,44.67
2019-02-09T06:25:00.874Z,44.93
2019-02-09T06:27:32.053Z,47.27
2019-02-09T06:30:03.580Z,47.90
2019-02-09T06:32:34.848Z,46.87
2019-02-09T06:35:06.487Z,41.63
2019-02-09T06:37:38.979Z,46.83
2019-02-09T06:40:11.516Z,52.07
2019-02-09T06:42:42.381Z,50.00
2019-02-09T06:45:15.736Z,48.80
2019-02-09T06:47:46.958Z,48.00
2019-02-09T06:50:20.267Z,43.27
2019-02-09T06:52:51.386Z,44.43
2019-02-09T06:55:22.368Z,43.97
2019-02-09T06:57:56.502Z,52.90
2019-02-09T07:00:27.637Z,54.97
2019-02-09T07:02:58.840Z,46.43
2019-02-09T07:05:29.867Z,53.60
2019-02-09T07:08:00.976Z,52.33
2019-02-09T07:10:32.190Z,51.40
2019-02-09T07:13:03.332Z,52.00
2019-02-09T07:15:35.431Z,49.80
2019-02-09T07:18:06.839Z,48.27
2019-02-09T07:20:39.764Z,45.03
2019-02-09T07:23:11.228Z,46.37
2019-02-09T07:25:42.080Z,45.67
2019-02-09T07:28:13.695Z,52.20
2019-02-09T07:30:45.327Z,44.50
2019-02-09T07:33:17.090Z,57.77
2019-02-09T07:35:48.264Z,49.07
2019-02-09T07:38:19.943Z,46.90
2019-02-09T07:40:51.268Z,46.90
2019-02-09T07:43:23.057Z,51.13
2019-02-09T07:45:54.269Z,50.70
2019-02-09T07:48:25.525Z,42.57
2019-02-09T07:50:56.863Z,45.90
2019-02-09T07:53:27.872Z,54.03
2019-02-09T07:55:59.058Z,48.57
2019-02-09T07:58:30.508Z,53.83
2019-02-09T08:01:02.994Z,49.77
2019-02-09T08:03:35.552Z,44.20
2019-02-09T08:06:07.140Z,44.50
2019-02-09T08:08:38.194Z,43.07
2019-02-09T08:11:10.004Z,46.07
2019-02-09T08:13:41.903Z,47.97
2019-02-09T08:16:13.355Z,48.87
2019-02-09T08:18:44.306Z,49.37
2019-02-09T08:21:15.559Z,40.67
2019-02-09T08:23:47.183Z,56.63
2019-02-09T08:26:18.625Z,45.20
2019-02-09T08:28:53.895Z,40.67
2019-02-09T08:31:25.114Z,43.40
2019-02-09T08:33:56.276Z,44.40
2019-02-09T08:36:28.778Z,42.50
2019-02-09T08:39:00.360Z,43.90
2019-02-09T08:41:31.494Z,45.17
2019-02-09T08:44:02.811Z,49.97
2019-02-09T08:46:33.868Z,45.73
2019-02-09T08:49:04.968Z,45.10
2019-02-09T08:51:35.824Z,41.77
2019-02-09T08:54:06.966Z,47.87
2019-02-09T08:56:37.596Z,42.60
2019-02-09T08:59:08.862Z,40.43
2019-02-09T09:01:39.477Z,43.17
2019-02-09T09:04:10.705Z,42.20
2019-02-09T09:06:41.826Z,39.90
2019-02-09T09:09:13.337Z,44.10
2019-02-09T09:11:44.098Z,41.90
2019-02-09T09:14:15.232Z,39.63
2019-02-09T09:16:46.512Z,36.93
2019-02-09T09:19:17.754Z,49.63
2019-02-09T09:21:48.870Z,42.70
2019-02-09T09:24:20.076Z,34.70
2019-02-09T09:26:51.229Z,40.67
2019-02-09T09:29:22.538Z,37.40
2019-02-09T09:31:53.447Z,41.97
2019-02-09T09:34:24.746Z,36.60
2019-02-09T09:36:56.037Z,42.30
2019-02-09T09:39:27.337Z,38.40
2019-02-09T09:41:58.565Z,40.13
2019-02-09T09:44:29.810Z,39.80
2019-02-09T09:47:00.811Z,39.30
2019-02-09T09:49:32.127Z,35.37
2019-02-09T09:52:03.469Z,40.97
2019-02-09T09:54:34.787Z,39.10
2019-02-09T09:57:05.940Z,38.20
2019-02-09T09:59:37.345Z,37.10
2019-02-09T10:02:08.623Z,38.43
2019-02-09T10:04:40.013Z,36.40
2019-02-09T10:07:13.988Z,39.97
2019-02-09T10:09:45.485Z,39.43
2019-02-09T10:12:16.989Z,41.90
2019-02-09T10:14:48.090Z,39.77
2019-02-09T10:17:19.183Z,46.60
2019-02-09T10:19:50.346Z,44.33
2019-02-09T10:22:21.460Z,39.63
2019-02-09T10:24:52.860Z,41.83
2019-02-09T10:27:24.042Z,36.90
2019-02-09T10:29:55.343Z,36.40
2019-02-09T10:32:26.586Z,41.83
2019-02-09T10:34:57.920Z,44.93
2019-02-09T10:37:30.452Z,35.60
2019-02-09T10:40:01.744Z,40.73
2019-02-09T10:42:33.076Z,48.60
2019-02-09T10:45:04.683Z,41.00
2019-02-09T10:47:36.649Z,37.43
2019-02-09T10:50:10.105Z,43.20
2019-02-09T10:52:41.347Z,42.27
2019-02-09T10:55:12.609Z,39.80
2019-02-09T10:57:44.027Z,40.20
2019-02-09T11:00:19.337Z,47.03
2019-02-09T11:02:52.143Z,40.27
2019-02-09T11:05:23.858Z,38.47
2019-02-09T11:07:55.564Z,47.50
2019-02-09T11:10:27.483Z,40.00
2019-02-09T11:12:58.512Z,48.00
2019-02-09T11:15:33.170Z,46.30
2019-02-09T11:18:05.058Z,46.40
2019-02-09T11:20:36.167Z,45.03
2019-02-09T11:23:07.188Z,44.57
2019-02-09T11:25:38.020Z,40.87
2019-02-09T11:28:09.682Z,43.00
2019-02-09T11:30:44.826Z,44.73
2019-02-09T11:33:16.192Z,40.97
2019-02-09T11:35:47.708Z,47.03
2019-02-09T11:38:19.072Z,45.37
2019-02-09T11:40:51.244Z,44.20
2019-02-09T11:43:22.482Z,41.03
2019-02-09T11:45:56.080Z,42.63
2019-02-09T11:48:32.023Z,42.13
2019-02-09T11:51:03.659Z,42.03
2019-02-09T11:53:34.866Z,41.07
2019-02-09T11:56:06.631Z,41.93
2019-02-09T11:58:37.579Z,35.63
2019-02-09T12:01:08.738Z,44.70
2019-02-09T12:03:40.148Z,47.90
2019-02-09T12:06:11.462Z,43.00
2019-02-09T12:08:42.555Z,46.27
2019-02-09T12:11:13.867Z,44.70
2019-02-09T12:13:44.966Z,40.60
2019-02-09T12:16:16.308Z,45.30
2019-02-09T12:18:49.369Z,43.00
2019-02-09T12:21:20.864Z,40.97
2019-02-09T12:23:52.128Z,42.33
2019-02-09T12:26:23.344Z,34.70
2019-02-09T12:28:55.021Z,40.50
2019-02-09T12:31:26.420Z,40.40
2019-02-09T12:33:58.109Z,38.80
2019-02-09T12:36:29.235Z,48.03
2019-02-09T12:39:00.634Z,45.33
2019-02-09T12:41:31.866Z,40.83
2019-02-09T12:44:03.465Z,39.37
2019-02-09T12:46:34.912Z,45.90
2019-02-09T12:49:06.688Z,45.30
2019-02-09T12:51:37.999Z,37.40
2019-02-09T12:54:09.348Z,38.53
2019-02-09T12:56:40.569Z,37.57
2019-02-09T12:59:14.990Z,41.83
2019-02-09T13:01:44.563Z,41.97
2019-02-09T13:04:15.905Z,43.37
2019-02-09T13:06:47.528Z,38.90
2019-02-09T13:09:18.874Z,40.60
2019-02-09T13:11:50.249Z,41.57
2019-02-09T13:14:21.406Z,40.55
2019-02-09T13:16:52.685Z,43.77
2019-02-09T13:19:23.816Z,38.37
2019-02-09T13:21:55.701Z,38.87
2019-02-09T13:24:27.110Z,37.27
2019-02-09T13:27:01.663Z,38.67
2019-02-09T13:29:32.890Z,34.40
2019-02-09T13:32:04.657Z,40.97
2019-02-09T13:34:36.917Z,43.37
2019-02-09T13:37:08.216Z,47.40
2019-02-09T13:39:38.994Z,39.17
2019-02-09T13:42:10.375Z,32.47
2019-02-09T13:44:41.517Z,37.67
2019-02-09T13:47:12.680Z,36.33
2019-02-09T13:49:43.997Z,37.53
2019-02-09T13:52:15.400Z,48.90
2019-02-09T13:54:46.666Z,37.93
2019-02-09T13:57:17.866Z,35.27
2019-02-09T13:59:49.833Z,36.17
2019-02-09T14:02:20.977Z,41.03
2019-02-09T14:04:51.995Z,42.23
2019-02-09T14:07:23.325Z,40.27
2019-02-09T14:09:54.555Z,38.37
2019-02-09T14:12:25.732Z,35.93
2019-02-09T14:14:57.022Z,36.20
2019-02-09T14:17:28.032Z,43.03
2019-02-09T14:19:59.167Z,39.13
2019-02-09T14:22:30.382Z,43.47
2019-02-09T14:25:06.678Z,41.23
2019-02-09T14:27:38.052Z,39.50
2019-02-09T14:30:12.555Z,44.10
2019-02-09T14:32:47.486Z,32.57
2019-02-09T14:35:19.079Z,30.97
2019-02-09T14:37:50.803Z,31.17
2019-02-09T14:40:23.687Z,38.20
2019-02-09T14:42:55.094Z,37.90
2019-02-09T14:45:32.100Z,40.37
2019-02-09T14:48:03.457Z,35.40
2019-02-09T14:50:34.549Z,38.00
2019-02-09T14:53:07.491Z,40.47
2019-02-09T14:55:38.464Z,38.33
2019-02-09T14:58:10.292Z,37.33
2019-02-09T15:00:43.420Z,40.83
2019-02-09T15:03:15.151Z,38.57
2019-02-09T15:05:46.249Z,41.03
2019-02-09T15:08:22.806Z,33.33
2019-02-09T15:10:53.917Z,36.80
2019-02-09T15:13:25.532Z,41.87
2019-02-09T15:16:08.025Z,39.67
2019-02-09T15:18:38.947Z,37.83
2019-02-09T15:21:10.094Z,39.87
2019-02-09T15:23:40.838Z,39.60
2019-02-09T15:26:12.740Z,43.57
2019-02-09T15:28:43.573Z,39.97
2019-02-09T15:31:14.763Z,41.57
2019-02-09T15:33:46.036Z,42.23
2019-02-09T15:36:17.101Z,42.80
2019-02-09T15:38:48.238Z,42.23
2019-02-09T15:41:19.357Z,46.90
2019-02-09T15:43:50.591Z,41.00
2019-02-09T15:47:03.427Z,48.93
2019-02-09T15:49:39.660Z,42.33
2019-02-09T15:52:11.004Z,43.53
2019-02-09T15:54:41.718Z,39.20
2019-02-09T15:57:12.913Z,40.20
2019-02-09T15:59:43.742Z,37.47
2019-02-09T16:02:14.875Z,42.37
2019-02-09T16:04:45.710Z,39.90
2019-02-09T16:07:16.834Z,41.23
2019-02-09T16:09:47.862Z,41.33
2019-02-09T16:12:22.198Z,43.70
2019-02-09T16:14:54.314Z,42.10
2019-02-09T16:17:25.485Z,38.13
2019-02-09T16:19:56.767Z,45.70
2019-02-09T16:22:28.011Z,44.00
2019-02-09T16:24:59.193Z,47.27
2019-02-09T16:27:30.497Z,39.00
2019-02-09T16:30:40.022Z,42.27
2019-02-09T16:33:11.224Z,40.60
2019-02-09T16:35:42.083Z,41.00
2019-02-09T16:38:16.139Z,45.70
2019-02-09T16:40:47.041Z,44.67
2019-02-09T16:43:18.326Z,48.70
2019-02-09T16:45:49.462Z,40.13
2019-02-09T16:48:20.707Z,40.33
2019-02-09T16:50:51.742Z,40.47
2019-02-09T16:53:28.707Z,44.90
2019-02-09T16:55:59.966Z,40.40
2019-02-09T16:58:30.979Z,42.50
2019-02-09T17:01:02.363Z,43.90
2019-02-09T17:03:33.530Z,41.27
2019-02-09T17:06:04.791Z,43.23
2019-02-09T17:08:36.008Z,45.23
2019-02-09T17:11:07.367Z,41.10
2019-02-09T17:13:38.224Z,48.13
2019-02-09T17:16:09.394Z,46.67
2019-02-09T17:18:40.026Z,43.90
2019-02-09T17:21:11.135Z,50.07
2019-02-09T17:23:42.568Z,48.90
2019-02-09T17:26:15.142Z,50.37
2019-02-09T17:28:46.267Z,50.63
2019-02-09T17:31:17.425Z,56.20
2019-02-09T17:33:48.679Z,48.63
2019-02-09T17:36:24.111Z,57.37
2019-02-09T17:38:55.565Z,50.67
2019-02-09T17:41:26.991Z,48.40
2019-02-09T17:43:58.201Z,57.47
2019-02-09T17:46:29.516Z,63.97
2019-02-09T17:49:00.833Z,47.70
2019-02-09T17:51:32.378Z,57.87
2019-02-09T17:54:03.725Z,55.43
2019-02-09T17:56:41.101Z,56.23
2019-02-09T17:59:12.615Z,54.30
2019-02-09T18:01:43.871Z,51.27
2019-02-09T18:04:15.213Z,56.20
2019-02-09T18:06:46.770Z,72.37
2019-02-09T18:09:20.722Z,59.90
2019-02-09T18:11:52.710Z,55.20
2019-02-09T18:14:24.496Z,54.30
2019-02-09T18:16:57.144Z,58.73
2019-02-09T18:19:31.104Z,57.40
2019-02-09T18:22:04.065Z,60.43
2019-02-09T18:24:35.298Z,63.83
2019-02-09T18:27:07.448Z,62.50
2019-02-09T18:29:38.456Z,57.33
2019-02-09T18:32:10.037Z,56.17
2019-02-09T18:34:40.904Z,54.20
2019-02-09T18:37:12.475Z,52.10
2019-02-09T18:39:45.319Z,66.27
2019-02-09T18:42:17.372Z,55.03
2019-02-09T18:44:48.224Z,54.90
2019-02-09T18:47:20.008Z,51.80
2019-02-09T18:49:51.684Z,60.30
2019-02-09T18:52:23.639Z,56.97
2019-02-09T18:54:55.775Z,56.27
2019-02-09T18:57:28.690Z,59.03
2019-02-09T19:00:00.278Z,57.80
2019-02-09T19:02:38.326Z,57.97
2019-02-09T19:05:07.134Z,52.13
2019-02-09T19:07:42.607Z,52.50
2019-02-09T19:10:19.639Z,67.60
2019-02-09T19:12:51.314Z,58.53
2019-02-09T19:15:23.085Z,56.20
2019-02-09T19:17:54.803Z,58.70
2019-02-09T19:20:34.748Z,55.93
2019-02-09T19:23:06.636Z,58.93
2019-02-09T19:25:37.940Z,56.47
2019-02-09T19:28:09.668Z,56.00
2019-02-09T19:30:49.955Z,59.90
2019-02-09T19:33:25.489Z,59.27
2019-02-09T19:35:57.822Z,56.60
2019-02-09T19:38:29.859Z,63.43
2019-02-09T19:41:01.211Z,54.13
2019-02-09T19:43:33.574Z,68.80
2019-02-09T19:46:06.234Z,62.83
2019-02-09T19:48:40.033Z,65.57
2019-02-09T19:51:11.697Z,69.97
2019-02-09T19:53:42.982Z,70.50
2019-02-09T19:56:15.433Z,65.40
2019-02-09T19:58:46.463Z,64.43
2019-02-09T20:01:19.646Z,60.90
2019-02-09T20:03:57.874Z,62.73
2019-02-09T20:06:31.020Z,66.43
2019-02-09T20:09:03.015Z,66.30
2019-02-09T20:11:34.392Z,57.77
2019-02-09T20:14:05.924Z,60.43
2019-02-09T20:16:37.992Z,66.80
2019-02-09T20:19:09.613Z,68.57
2019-02-09T20:21:41.592Z,67.37
2019-02-09T20:24:12.969Z,63.80
2019-02-09T20:26:44.031Z,56.23
2019-02-09T20:29:15.549Z,56.20
2019-02-09T20:31:46.859Z,57.80
2019-02-09T20:34:18.478Z,61.67
2019-02-09T20:36:49.986Z,69.30
2019-02-09T20:39:26.662Z,59.63
2019-02-09T20:41:59.580Z,70.13
2019-02-09T20:44:32.009Z,59.53
2019-02-09T20:47:09.653Z,63.10
2019-02-09T20:49:40.439Z,59.57
2019-02-09T20:52:11.766Z,70.73
2019-02-09T20:54:43.225Z,60.87
2019-02-09T20:57:14.658Z,69.97
2019-02-09T20:59:48.124Z,63.20
2019-02-09T21:02:19.416Z,65.33
2019-02-09T21:04:50.794Z,73.33
2019-02-09T21:07:24.456Z,69.73
2019-02-09T21:09:55.399Z,68.77
2019-02-09T21:12:26.912Z,66.80
2019-02-09T21:14:58.370Z,66.47
2019-02-09T21:17:29.795Z,67.93
2019-02-09T21:20:01.059Z,71.43
2019-02-09T21:22:32.513Z,68.57
2019-02-09T21:25:05.511Z,69.37
2019-02-09T21:27:36.802Z,74.67
2019-02-09T21:30:08.430Z,66.90
2019-02-09T21:32:40.453Z,73.90
2019-02-09T21:35:12.798Z,63.77
2019-02-09T21:37:44.149Z,63.83
2019-02-09T21:40:18.236Z,69.73
2019-02-09T21:42:49.641Z,66.33
2019-02-09T21:45:21.481Z,78.13
2019-02-09T21:47:52.750Z,75.97
2019-02-09T21:50:41.477Z,66.60
2019-02-09T21:53:13.508Z,75.87
2019-02-09T21:55:44.833Z,73.07
2019-02-09T21:58:16.189Z,72.03
2019-02-09T22:00:47.101Z,71.00
2019-02-09T22:03:18.235Z,65.83
2019-02-09T22:05:52.753Z,71.60
2019-02-09T22:08:24.076Z,65.63
2019-02-09T22:10:55.222Z,71.87
2019-02-09T22:13:26.717Z,71.30
2019-02-09T22:15:57.982Z,69.60
2019-02-09T22:18:29.299Z,77.13
2019-02-09T22:21:00.602Z,68.33
2019-02-09T22:23:31.557Z,72.70
2019-02-09T22:26:02.915Z,72.60
2019-02-09T22:28:34.357Z,76.13
2019-02-09T22:31:05.588Z,71.70
2019-02-09T22:33:37.300Z,73.90
2019-02-09T22:36:08.681Z,71.10
2019-02-09T22:38:40.770Z,69.73
2019-02-09T22:41:15.045Z,78.53
2019-02-09T22:43:46.295Z,74.47
2019-02-09T22:46:17.730Z,81.33
2019-02-09T22:48:48.572Z,69.53
2019-02-09T22:51:22.818Z,74.47
2019-02-09T22:53:55.850Z,84.80
2019-02-09T22:56:27.231Z,71.73
2019-02-09T22:58:59.264Z,71.27
2019-02-09T23:01:44.121Z,72.23
2019-02-09T23:04:49.653Z,69.57
2019-02-09T23:07:24.138Z,69.90
2019-02-09T23:09:55.455Z,81.33
2019-02-09T23:12:27.120Z,68.77
2019-02-09T23:14:58.649Z,67.72
2019-02-09T23:17:29.989Z,65.60
2019-02-09T23:20:01.304Z,70.60
2019-02-09T23:22:32.645Z,74.00
2019-02-09T23:25:04.170Z,67.60
2019-02-09T23:27:35.495Z,57.13
2019-02-09T23:30:09.154Z,63.17
2019-02-09T23:32:39.931Z,62.10
2019-02-09T23:35:13.843Z,63.50
2019-02-09T23:37:45.450Z,61.37
2019-02-09T23:40:16.685Z,61.73
2019-02-09T23:42:51.748Z,66.40
2019-02-09T23:45:23.274Z,57.67
2019-02-09T23:47:54.601Z,57.17
2019-02-09T23:50:25.795Z,58.20
2019-02-09T23:52:57.069Z,61.90
2019-02-09T23:55:28.218Z,55.23
2019-02-09T23:58:00.571Z,56.60
